Bayfield, CO (81122)

6:50 AM MDT on May 23, 2017 (GMT -0600)
Vallecito Lake | | Change Station

Elev 7762 ft 37.45 °N, 107.55 °W | Updated 4 minutes ago

Clear
Clear
31.1 °F
Feels Like 31.1 °F
N
0.0
Wind Variable Wind from SSE
Gusts 1.0 mph

Today
High -- | Low -- °F
--% Chance of Precip.
Yesterday
High -- | Low -- °F
Precip. -- in
Pressure 29.98 in
Visibility 10.0 miles
Clouds Clear
Dew Point 27.7 °F
Humidity 87%
Rainfall 0.00 in
Snow Depth Not available.
5:55 AM 8:18 PM
Waning Crescent, 8% visible
METAR KDRO 231153Z AUTO 34006KT 10SM CLR 08/M02 A3016 RMK AO2 SLP151 T00831022 10128 20072 55002
Pressure 29.98 in
Visibility 10.0 miles
Clouds Clear
Dew Point 27.7 °F
Humidity 87%
Rainfall 0.00 in
Snow Depth Not available.
5:55 AM 8:18 PM
Waning Crescent, 8% visible
METAR KDRO 231153Z AUTO 34006KT 10SM CLR 08/M02 A3016 RMK AO2 SLP151 T00831022 10128 20072 55002

Get Severe Weather Alerts

Thanks for signing up!

Be on the lookout for a verification email in your inbox.

You'll start receiving the daily forecast at 6 AM.

×

10-Day Weather Forecast

Almanac

Astronomy

May. 23, 2017 Rise Set
Actual Time
Civil Twilight
Nautical Twilight
Astronomical Twilight
Moon
Length of Visible Light
Length of Day
Tomorrow will be .
, % of the Moon is Illuminated

Today's Extremes

State Highs State Lows

Community

WunderPhotos

Category 6

Welcome to Category 6. This is the collective home for Weather Underground's featured writeups by Dr. Jeff Masters (right), Bob Henson (left), Chris Burt, and other regular contributors.

Nearby

Air Quality

  Air Quality AQ Index Pollutant
Not available.

Snow Depth

Station Depth Elevation

Earthquake Activity

City Distance Mag. Time & Date
Minimum magnitude displayed is 2.5.

Coastal Water Temperatures

Place Temperature

Stations

Nearby Weather Stations

Station Location Temp. Windchill Dew Point Humidity Wind Precip. Elev Updated Type
                   

Watches & Warnings

There are currently no watches in effect.